sensor_id;sensor_type;location;lat;lon;timestamp;temperature;humidity
42085;DHT22;27746;52.228;20.890;2022-08-19T00:00:49;24.10;98.50
42085;DHT22;27746;52.228;20.890;2022-08-19T00:03:17;24.10;98.50
42085;DHT22;27746;52.228;20.890;2022-08-19T00:05:44;24.20;98.60
42085;DHT22;27746;52.228;20.890;2022-08-19T00:08:10;24.10;98.60
42085;DHT22;27746;52.228;20.890;2022-08-19T00:10:39;24.10;98.70
42085;DHT22;27746;52.228;20.890;2022-08-19T00:13:05;24.10;98.80
42085;DHT22;27746;52.228;20.890;2022-08-19T00:15:32;24.00;98.90
42085;DHT22;27746;52.228;20.890;2022-08-19T00:17:59;24.00;99.00
42085;DHT22;27746;52.228;20.890;2022-08-19T00:20:26;24.00;99.10
42085;DHT22;27746;52.228;20.890;2022-08-19T00:22:52;24.00;99.20
42085;DHT22;27746;52.228;20.890;2022-08-19T00:25:19;24.00;99.30
42085;DHT22;27746;52.228;20.890;2022-08-19T00:27:47;24.00;99.40
42085;DHT22;27746;52.228;20.890;2022-08-19T00:30:14;23.90;99.40
42085;DHT22;27746;52.228;20.890;2022-08-19T00:32:42;23.90;99.50
42085;DHT22;27746;52.228;20.890;2022-08-19T00:35:09;23.80;99.60
42085;DHT22;27746;52.228;20.890;2022-08-19T00:37:37;23.80;99.60
42085;DHT22;27746;52.228;20.890;2022-08-19T00:40:09;23.80;99.70
42085;DHT22;27746;52.228;20.890;2022-08-19T00:42:36;23.70;99.80
42085;DHT22;27746;52.228;20.890;2022-08-19T00:45:10;23.70;99.90
42085;DHT22;27746;52.228;20.890;2022-08-19T00:47:37;23.70;99.90
42085;DHT22;27746;52.228;20.890;2022-08-19T00:50:04;23.70;99.90
42085;DHT22;27746;52.228;20.890;2022-08-19T00:52:34;23.70;99.90
42085;DHT22;27746;52.228;20.890;2022-08-19T00:55:05;23.60;99.90
42085;DHT22;27746;52.228;20.890;2022-08-19T00:57:40;23.60;99.90
42085;DHT22;27746;52.228;20.890;2022-08-19T01:00:13;23.60;99.90
42085;DHT22;27746;52.228;20.890;2022-08-19T01:02:42;23.50;99.90
42085;DHT22;27746;52.228;20.890;2022-08-19T01:05:11;23.50;99.90
42085;DHT22;27746;52.228;20.890;2022-08-19T01:07:41;23.50;99.90
42085;DHT22;27746;52.228;20.890;2022-08-19T01:10:11;23.50;99.90
42085;DHT22;27746;52.228;20.890;2022-08-19T01:12:39;23.50;99.90
42085;DHT22;27746;52.228;20.890;2022-08-19T01:15:07;23.50;99.90
42085;DHT22;27746;52.228;20.890;2022-08-19T01:17:38;23.50;99.90
42085;DHT22;27746;52.228;20.890;2022-08-19T01:20:07;23.40;99.90
42085;DHT22;27746;52.228;20.890;2022-08-19T01:22:40;23.40;99.90
42085;DHT22;27746;52.228;20.890;2022-08-19T01:25:08;23.40;99.90
42085;DHT22;27746;52.228;20.890;2022-08-19T01:27:39;23.30;99.90
42085;DHT22;27746;52.228;20.890;2022-08-19T01:30:07;23.30;99.90
42085;DHT22;27746;52.228;20.890;2022-08-19T01:32:35;23.30;99.90
42085;DHT22;27746;52.228;20.890;2022-08-19T01:35:01;23.30;99.90
42085;DHT22;27746;52.228;20.890;2022-08-19T01:37:29;23.20;99.90
42085;DHT22;27746;52.228;20.890;2022-08-19T01:39:58;23.20;99.90
42085;DHT22;27746;52.228;20.890;2022-08-19T01:42:24;23.10;99.90
42085;DHT22;27746;52.228;20.890;2022-08-19T01:44:51;23.10;99.90
42085;DHT22;27746;52.228;20.890;2022-08-19T01:47:18;23.10;99.90
42085;DHT22;27746;52.228;20.890;2022-08-19T01:49:45;23.10;99.90
42085;DHT22;27746;52.228;20.890;2022-08-19T01:52:11;23.10;99.90
42085;DHT22;27746;52.228;20.890;2022-08-19T01:54:38;23.00;99.90
42085;DHT22;27746;52.228;20.890;2022-08-19T01:57:10;23.00;99.90
42085;DHT22;27746;52.228;20.890;2022-08-19T01:59:39;23.00;99.90
42085;DHT22;27746;52.228;20.890;2022-08-19T02:02:06;23.00;99.90
42085;DHT22;27746;52.228;20.890;2022-08-19T02:04:33;22.90;99.90
42085;DHT22;27746;52.228;20.890;2022-08-19T02:07:00;22.90;99.90
42085;DHT22;27746;52.228;20.890;2022-08-19T02:09:27;22.90;99.90
42085;DHT22;27746;52.228;20.890;2022-08-19T02:11:54;22.80;99.90
42085;DHT22;27746;52.228;20.890;2022-08-19T02:14:22;22.80;99.90
42085;DHT22;27746;52.228;20.890;2022-08-19T02:16:49;22.80;99.90
42085;DHT22;27746;52.228;20.890;2022-08-19T02:19:16;22.80;99.90
42085;DHT22;27746;52.228;20.890;2022-08-19T02:21:42;22.70;99.90
42085;DHT22;27746;52.228;20.890;2022-08-19T02:24:09;22.70;99.90
42085;DHT22;27746;52.228;20.890;2022-08-19T02:26:37;22.60;99.90
42085;DHT22;27746;52.228;20.890;2022-08-19T02:29:04;22.70;99.90
42085;DHT22;27746;52.228;20.890;2022-08-19T02:31:32;22.70;99.90
42085;DHT22;27746;52.228;20.890;2022-08-19T02:33:59;22.70;99.90
42085;DHT22;27746;52.228;20.890;2022-08-19T02:36:27;22.60;99.90
42085;DHT22;27746;52.228;20.890;2022-08-19T02:38:53;22.60;99.90
42085;DHT22;27746;52.228;20.890;2022-08-19T02:41:21;22.60;99.90
42085;DHT22;27746;52.228;20.890;2022-08-19T02:43:48;22.60;99.90
42085;DHT22;27746;52.228;20.890;2022-08-19T02:46:17;22.60;99.90
42085;DHT22;27746;52.228;20.890;2022-08-19T02:48:48;22.50;99.90
42085;DHT22;27746;52.228;20.890;2022-08-19T02:51:19;22.50;99.90
42085;DHT22;27746;52.228;20.890;2022-08-19T02:53:46;22.50;99.90
42085;DHT22;27746;52.228;20.890;2022-08-19T02:56:13;22.50;99.90
42085;DHT22;27746;52.228;20.890;2022-08-19T02:58:41;22.40;99.90
42085;DHT22;27746;52.228;20.890;2022-08-19T03:01:09;22.30;99.90
42085;DHT22;27746;52.228;20.890;2022-08-19T03:03:37;22.30;99.90
42085;DHT22;27746;52.228;20.890;2022-08-19T03:06:08;22.30;99.90
42085;DHT22;27746;52.228;20.890;2022-08-19T03:08:35;22.30;99.90
42085;DHT22;27746;52.228;20.890;2022-08-19T03:11:03;22.20;99.90
42085;DHT22;27746;52.228;20.890;2022-08-19T03:13:30;22.20;99.90
42085;DHT22;27746;52.228;20.890;2022-08-19T03:15:56;22.20;99.90
42085;DHT22;27746;52.228;20.890;2022-08-19T03:18:23;22.20;99.90
42085;DHT22;27746;52.228;20.890;2022-08-19T03:20:51;22.20;99.90
42085;DHT22;27746;52.228;20.890;2022-08-19T03:23:22;22.20;99.90
42085;DHT22;27746;52.228;20.890;2022-08-19T03:25:51;22.10;99.90
42085;DHT22;27746;52.228;20.890;2022-08-19T03:28:20;22.10;99.90
42085;DHT22;27746;52.228;20.890;2022-08-19T03:30:58;22.20;99.90
42085;DHT22;27746;52.228;20.890;2022-08-19T03:33:27;22.10;99.90
42085;DHT22;27746;52.228;20.890;2022-08-19T03:36:03;22.10;99.90
42085;DHT22;27746;52.228;20.890;2022-08-19T03:38:31;22.10;99.90
42085;DHT22;27746;52.228;20.890;2022-08-19T03:41:03;22.10;99.90
42085;DHT22;27746;52.228;20.890;2022-08-19T03:43:32;22.10;99.90
42085;DHT22;27746;52.228;20.890;2022-08-19T03:46:04;22.10;99.90
42085;DHT22;27746;52.228;20.890;2022-08-19T03:48:32;22.10;99.90
42085;DHT22;27746;52.228;20.890;2022-08-19T03:51:00;22.00;99.90
42085;DHT22;27746;52.228;20.890;2022-08-19T03:53:29;22.10;99.90
42085;DHT22;27746;52.228;20.890;2022-08-19T03:55:58;22.00;99.90
42085;DHT22;27746;52.228;20.890;2022-08-19T03:58:27;22.10;99.90
42085;DHT22;27746;52.228;20.890;2022-08-19T04:00:55;22.10;99.90
42085;DHT22;27746;52.228;20.890;2022-08-19T04:03:23;22.10;99.90
42085;DHT22;27746;52.228;20.890;2022-08-19T04:05:50;22.10;99.90
42085;DHT22;27746;52.228;20.890;2022-08-19T04:08:17;22.20;99.90
42085;DHT22;27746;52.228;20.890;2022-08-19T04:10:45;22.20;99.90
42085;DHT22;27746;52.228;20.890;2022-08-19T04:13:14;22.20;99.90
42085;DHT22;27746;52.228;20.890;2022-08-19T04:15:42;22.20;99.90
42085;DHT22;27746;52.228;20.890;2022-08-19T04:18:09;22.20;99.90
42085;DHT22;27746;52.228;20.890;2022-08-19T04:20:41;22.30;99.90
42085;DHT22;27746;52.228;20.890;2022-08-19T04:23:08;22.40;99.90
42085;DHT22;27746;52.228;20.890;2022-08-19T04:25:37;22.40;99.90
42085;DHT22;27746;52.228;20.890;2022-08-19T04:28:04;22.50;99.90
42085;DHT22;27746;52.228;20.890;2022-08-19T04:30:37;22.60;99.90
42085;DHT22;27746;52.228;20.890;2022-08-19T04:33:05;22.60;99.90
42085;DHT22;27746;52.228;20.890;2022-08-19T04:35:36;22.60;99.90
42085;DHT22;27746;52.228;20.890;2022-08-19T04:38:03;22.70;99.90
42085;DHT22;27746;52.228;20.890;2022-08-19T04:40:30;22.70;99.90
42085;DHT22;27746;52.228;20.890;2022-08-19T04:43:14;22.80;99.90
42085;DHT22;27746;52.228;20.890;2022-08-19T04:45:43;22.80;99.90
42085;DHT22;27746;52.228;20.890;2022-08-19T04:48:10;22.80;99.90
42085;DHT22;27746;52.228;20.890;2022-08-19T04:50:40;22.90;99.90
42085;DHT22;27746;52.228;20.890;2022-08-19T04:53:08;22.90;99.90
42085;DHT22;27746;52.228;20.890;2022-08-19T04:55:40;23.00;99.90
42085;DHT22;27746;52.228;20.890;2022-08-19T04:58:07;23.00;99.90
42085;DHT22;27746;52.228;20.890;2022-08-19T05:00:34;23.00;99.90
42085;DHT22;27746;52.228;20.890;2022-08-19T05:03:05;23.00;99.90
42085;DHT22;27746;52.228;20.890;2022-08-19T05:05:32;23.10;99.90
42085;DHT22;27746;52.228;20.890;2022-08-19T05:07:59;23.10;99.90
42085;DHT22;27746;52.228;20.890;2022-08-19T05:10:26;23.10;99.90
42085;DHT22;27746;52.228;20.890;2022-08-19T05:12:53;23.10;99.90
42085;DHT22;27746;52.228;20.890;2022-08-19T05:15:19;23.10;99.90
42085;DHT22;27746;52.228;20.890;2022-08-19T05:17:46;23.10;99.90
42085;DHT22;27746;52.228;20.890;2022-08-19T05:20:28;23.20;99.90
42085;DHT22;27746;52.228;20.890;2022-08-19T05:23:13;23.20;99.90
42085;DHT22;27746;52.228;20.890;2022-08-19T05:25:41;23.20;99.90
42085;DHT22;27746;52.228;20.890;2022-08-19T05:28:08;23.30;99.90
42085;DHT22;27746;52.228;20.890;2022-08-19T05:30:35;23.40;99.90
42085;DHT22;27746;52.228;20.890;2022-08-19T05:33:02;23.50;99.90
42085;DHT22;27746;52.228;20.890;2022-08-19T05:35:30;23.50;99.90
42085;DHT22;27746;52.228;20.890;2022-08-19T05:38:00;23.70;99.90
42085;DHT22;27746;52.228;20.890;2022-08-19T05:40:27;23.80;99.90
42085;DHT22;27746;52.228;20.890;2022-08-19T05:42:54;23.80;99.90
42085;DHT22;27746;52.228;20.890;2022-08-19T05:45:21;23.90;99.90
42085;DHT22;27746;52.228;20.890;2022-08-19T05:47:48;24.00;99.90
42085;DHT22;27746;52.228;20.890;2022-08-19T05:50:15;24.10;99.90
42085;DHT22;27746;52.228;20.890;2022-08-19T05:52:44;24.20;99.90
42085;DHT22;27746;52.228;20.890;2022-08-19T05:55:12;24.30;99.90
42085;DHT22;27746;52.228;20.890;2022-08-19T05:57:39;24.30;99.90
42085;DHT22;27746;52.228;20.890;2022-08-19T06:00:07;24.40;99.90
42085;DHT22;27746;52.228;20.890;2022-08-19T06:02:36;24.40;99.90
42085;DHT22;27746;52.228;20.890;2022-08-19T06:05:03;24.40;99.90
42085;DHT22;27746;52.228;20.890;2022-08-19T06:07:31;24.50;99.90
42085;DHT22;27746;52.228;20.890;2022-08-19T06:09:59;24.50;99.90
42085;DHT22;27746;52.228;20.890;2022-08-19T06:12:27;24.60;99.90
42085;DHT22;27746;52.228;20.890;2022-08-19T06:14:57;24.60;99.90
42085;DHT22;27746;52.228;20.890;2022-08-19T06:17:23;24.80;99.90
42085;DHT22;27746;52.228;20.890;2022-08-19T06:19:51;24.80;99.90
42085;DHT22;27746;52.228;20.890;2022-08-19T06:22:18;24.90;99.90
42085;DHT22;27746;52.228;20.890;2022-08-19T06:24:45;24.90;99.90
42085;DHT22;27746;52.228;20.890;2022-08-19T06:27:14;24.90;99.90
42085;DHT22;27746;52.228;20.890;2022-08-19T06:29:41;25.10;99.90
42085;DHT22;27746;52.228;20.890;2022-08-19T06:32:08;25.20;99.90
42085;DHT22;27746;52.228;20.890;2022-08-19T06:34:36;25.30;99.90
42085;DHT22;27746;52.228;20.890;2022-08-19T06:37:03;25.40;99.90
42085;DHT22;27746;52.228;20.890;2022-08-19T06:39:33;25.40;99.90
42085;DHT22;27746;52.228;20.890;2022-08-19T06:42:02;25.50;99.90
42085;DHT22;27746;52.228;20.890;2022-08-19T06:44:34;25.60;99.90
42085;DHT22;27746;52.228;20.890;2022-08-19T06:47:03;25.70;99.90
42085;DHT22;27746;52.228;20.890;2022-08-19T06:49:30;25.60;99.90
42085;DHT22;27746;52.228;20.890;2022-08-19T06:51:58;25.50;99.90
42085;DHT22;27746;52.228;20.890;2022-08-19T06:54:25;25.40;99.90
42085;DHT22;27746;52.228;20.890;2022-08-19T06:56:53;25.40;99.90
42085;DHT22;27746;52.228;20.890;2022-08-19T06:59:22;25.40;99.90
42085;DHT22;27746;52.228;20.890;2022-08-19T07:01:56;25.50;99.90
42085;DHT22;27746;52.228;20.890;2022-08-19T07:04:26;25.40;99.90
42085;DHT22;27746;52.228;20.890;2022-08-19T07:06:57;25.50;99.90
42085;DHT22;27746;52.228;20.890;2022-08-19T07:09:24;25.70;99.90
42085;DHT22;27746;52.228;20.890;2022-08-19T07:11:52;25.70;99.80
42085;DHT22;27746;52.228;20.890;2022-08-19T07:14:22;25.80;99.60
42085;DHT22;27746;52.228;20.890;2022-08-19T07:16:51;25.80;99.80
42085;DHT22;27746;52.228;20.890;2022-08-19T07:19:23;25.90;99.80
42085;DHT22;27746;52.228;20.890;2022-08-19T07:21:50;25.90;99.80
42085;DHT22;27746;52.228;20.890;2022-08-19T07:24:18;26.10;99.70
42085;DHT22;27746;52.228;20.890;2022-08-19T07:26:45;26.10;99.50
42085;DHT22;27746;52.228;20.890;2022-08-19T07:29:12;26.20;99.40
42085;DHT22;27746;52.228;20.890;2022-08-19T07:31:39;26.20;99.40
42085;DHT22;27746;52.228;20.890;2022-08-19T07:34:08;26.30;99.40
42085;DHT22;27746;52.228;20.890;2022-08-19T07:36:39;26.40;99.20
42085;DHT22;27746;52.228;20.890;2022-08-19T07:39:10;26.50;99.30
42085;DHT22;27746;52.228;20.890;2022-08-19T07:41:38;26.50;98.90
42085;DHT22;27746;52.228;20.890;2022-08-19T07:44:05;26.60;99.60
42085;DHT22;27746;52.228;20.890;2022-08-19T07:46:34;26.70;99.10
42085;DHT22;27746;52.228;20.890;2022-08-19T07:49:03;26.70;99.00
42085;DHT22;27746;52.228;20.890;2022-08-19T07:51:30;26.80;99.00
42085;DHT22;27746;52.228;20.890;2022-08-19T07:54:00;26.90;98.90
42085;DHT22;27746;52.228;20.890;2022-08-19T07:56:28;26.90;98.50
42085;DHT22;27746;52.228;20.890;2022-08-19T07:58:55;27.00;98.60
42085;DHT22;27746;52.228;20.890;2022-08-19T08:01:23;27.00;98.40
42085;DHT22;27746;52.228;20.890;2022-08-19T08:03:52;27.00;98.90
42085;DHT22;27746;52.228;20.890;2022-08-19T08:06:37;27.10;98.10
42085;DHT22;27746;52.228;20.890;2022-08-19T08:09:25;27.10;98.40
42085;DHT22;27746;52.228;20.890;2022-08-19T08:12:01;27.30;98.40
42085;DHT22;27746;52.228;20.890;2022-08-19T08:14:31;27.40;97.90
42085;DHT22;27746;52.228;20.890;2022-08-19T08:16:58;27.50;98.20
42085;DHT22;27746;52.228;20.890;2022-08-19T08:19:27;27.60;98.10
42085;DHT22;27746;52.228;20.890;2022-08-19T08:21:57;27.70;97.20
42085;DHT22;27746;52.228;20.890;2022-08-19T08:24:28;27.70;97.30
42085;DHT22;27746;52.228;20.890;2022-08-19T08:26:58;27.80;97.30
42085;DHT22;27746;52.228;20.890;2022-08-19T08:29:25;27.80;97.10
42085;DHT22;27746;52.228;20.890;2022-08-19T08:31:52;27.80;97.20
42085;DHT22;27746;52.228;20.890;2022-08-19T08:34:20;27.80;97.60
42085;DHT22;27746;52.228;20.890;2022-08-19T08:36:47;27.90;97.30
42085;DHT22;27746;52.228;20.890;2022-08-19T08:39:18;28.00;97.20
42085;DHT22;27746;52.228;20.890;2022-08-19T08:41:53;28.00;97.10
42085;DHT22;27746;52.228;20.890;2022-08-19T08:44:38;28.10;97.10
42085;DHT22;27746;52.228;20.890;2022-08-19T08:47:12;28.20;97.20
42085;DHT22;27746;52.228;20.890;2022-08-19T08:49:45;28.30;97.20
42085;DHT22;27746;52.228;20.890;2022-08-19T08:52:15;28.30;97.00
42085;DHT22;27746;52.228;20.890;2022-08-19T08:54:47;28.30;96.80
42085;DHT22;27746;52.228;20.890;2022-08-19T08:57:21;28.40;96.60
42085;DHT22;27746;52.228;20.890;2022-08-19T08:59:51;28.40;96.90
42085;DHT22;27746;52.228;20.890;2022-08-19T09:02:25;28.50;96.90
42085;DHT22;27746;52.228;20.890;2022-08-19T09:04:58;28.70;97.10
42085;DHT22;27746;52.228;20.890;2022-08-19T09:07:33;28.80;96.60
42085;DHT22;27746;52.228;20.890;2022-08-19T09:10:07;28.90;96.90
42085;DHT22;27746;52.228;20.890;2022-08-19T09:12:42;28.90;96.20
42085;DHT22;27746;52.228;20.890;2022-08-19T09:15:13;29.00;96.20
42085;DHT22;27746;52.228;20.890;2022-08-19T09:17:41;29.00;96.10
42085;DHT22;27746;52.228;20.890;2022-08-19T09:20:16;29.10;95.90
42085;DHT22;27746;52.228;20.890;2022-08-19T09:22:44;29.10;95.70
42085;DHT22;27746;52.228;20.890;2022-08-19T09:25:14;29.20;94.70
42085;DHT22;27746;52.228;20.890;2022-08-19T09:27:45;29.30;94.30
42085;DHT22;27746;52.228;20.890;2022-08-19T09:30:15;29.30;94.10
42085;DHT22;27746;52.228;20.890;2022-08-19T09:32:43;29.40;94.10
42085;DHT22;27746;52.228;20.890;2022-08-19T09:35:11;29.50;94.40
42085;DHT22;27746;52.228;20.890;2022-08-19T09:37:39;29.60;93.80
42085;DHT22;27746;52.228;20.890;2022-08-19T09:40:07;29.60;92.80
42085;DHT22;27746;52.228;20.890;2022-08-19T09:42:35;29.80;92.40
42085;DHT22;27746;52.228;20.890;2022-08-19T09:45:03;29.70;92.30
42085;DHT22;27746;52.228;20.890;2022-08-19T09:47:30;29.70;92.00
42085;DHT22;27746;52.228;20.890;2022-08-19T09:49:57;29.80;92.30
42085;DHT22;27746;52.228;20.890;2022-08-19T09:52:24;29.90;92.20
42085;DHT22;27746;52.228;20.890;2022-08-19T09:54:52;30.00;92.10
42085;DHT22;27746;52.228;20.890;2022-08-19T09:57:19;30.10;91.70
42085;DHT22;27746;52.228;20.890;2022-08-19T09:59:46;30.10;91.40
42085;DHT22;27746;52.228;20.890;2022-08-19T10:02:16;30.30;91.60
42085;DHT22;27746;52.228;20.890;2022-08-19T10:04:43;30.30;91.80
42085;DHT22;27746;52.228;20.890;2022-08-19T10:07:29;30.40;91.40
42085;DHT22;27746;52.228;20.890;2022-08-19T10:09:56;30.50;91.60
42085;DHT22;27746;52.228;20.890;2022-08-19T10:12:23;30.60;91.10
42085;DHT22;27746;52.228;20.890;2022-08-19T10:14:49;30.60;90.80
42085;DHT22;27746;52.228;20.890;2022-08-19T10:17:20;30.60;90.60
42085;DHT22;27746;52.228;20.890;2022-08-19T10:19:47;30.60;90.40
42085;DHT22;27746;52.228;20.890;2022-08-19T10:22:14;30.70;89.40
42085;DHT22;27746;52.228;20.890;2022-08-19T10:24:41;30.70;89.10
42085;DHT22;27746;52.228;20.890;2022-08-19T10:27:08;30.80;89.40
42085;DHT22;27746;52.228;20.890;2022-08-19T10:29:35;31.00;89.70
42085;DHT22;27746;52.228;20.890;2022-08-19T10:32:03;31.10;88.60
42085;DHT22;27746;52.228;20.890;2022-08-19T10:34:32;31.00;88.90
42085;DHT22;27746;52.228;20.890;2022-08-19T10:37:01;31.20;90.00
42085;DHT22;27746;52.228;20.890;2022-08-19T10:39:29;31.40;88.50
42085;DHT22;27746;52.228;20.890;2022-08-19T10:41:56;31.40;87.20
42085;DHT22;27746;52.228;20.890;2022-08-19T10:44:24;31.60;87.80
42085;DHT22;27746;52.228;20.890;2022-08-19T10:46:51;31.80;86.50
42085;DHT22;27746;52.228;20.890;2022-08-19T10:49:19;31.80;87.10
42085;DHT22;27746;52.228;20.890;2022-08-19T10:51:47;32.00;86.10
42085;DHT22;27746;52.228;20.890;2022-08-19T10:54:32;32.10;85.40
42085;DHT22;27746;52.228;20.890;2022-08-19T10:57:17;32.10;84.70
42085;DHT22;27746;52.228;20.890;2022-08-19T10:59:44;32.00;84.30
42085;DHT22;27746;52.228;20.890;2022-08-19T11:02:11;32.10;84.80
42085;DHT22;27746;52.228;20.890;2022-08-19T11:04:40;32.10;84.50
42085;DHT22;27746;52.228;20.890;2022-08-19T11:07:09;32.10;84.00
42085;DHT22;27746;52.228;20.890;2022-08-19T11:09:40;32.20;83.10
42085;DHT22;27746;52.228;20.890;2022-08-19T11:12:08;32.20;83.70
42085;DHT22;27746;52.228;20.890;2022-08-19T11:14:35;32.10;83.00
42085;DHT22;27746;52.228;20.890;2022-08-19T11:17:02;32.10;82.30
42085;DHT22;27746;52.228;20.890;2022-08-19T11:19:30;32.20;82.40
42085;DHT22;27746;52.228;20.890;2022-08-19T11:21:57;32.30;82.90
42085;DHT22;27746;52.228;20.890;2022-08-19T11:24:29;32.40;83.60
42085;DHT22;27746;52.228;20.890;2022-08-19T11:27:02;32.50;82.60
42085;DHT22;27746;52.228;20.890;2022-08-19T11:29:30;32.20;82.90
42085;DHT22;27746;52.228;20.890;2022-08-19T11:31:56;32.40;82.60
42085;DHT22;27746;52.228;20.890;2022-08-19T11:34:27;32.40;82.00
42085;DHT22;27746;52.228;20.890;2022-08-19T11:36:55;32.60;81.60
42085;DHT22;27746;52.228;20.890;2022-08-19T11:39:24;32.50;82.10
42085;DHT22;27746;52.228;20.890;2022-08-19T11:41:53;32.50;82.70
42085;DHT22;27746;52.228;20.890;2022-08-19T11:44:20;32.50;82.00
42085;DHT22;27746;52.228;20.890;2022-08-19T11:46:47;32.50;82.30
42085;DHT22;27746;52.228;20.890;2022-08-19T11:49:19;32.60;81.80
42085;DHT22;27746;52.228;20.890;2022-08-19T11:51:47;32.70;81.30
42085;DHT22;27746;52.228;20.890;2022-08-19T11:54:16;32.80;81.20
42085;DHT22;27746;52.228;20.890;2022-08-19T11:56:44;32.70;81.60
42085;DHT22;27746;52.228;20.890;2022-08-19T11:59:12;32.80;81.00
42085;DHT22;27746;52.228;20.890;2022-08-19T12:01:39;32.80;81.40
42085;DHT22;27746;52.228;20.890;2022-08-19T12:04:08;32.90;80.80
42085;DHT22;27746;52.228;20.890;2022-08-19T12:06:38;33.00;81.30
42085;DHT22;27746;52.228;20.890;2022-08-19T12:09:08;33.20;79.10
42085;DHT22;27746;52.228;20.890;2022-08-19T12:11:36;33.20;78.10
42085;DHT22;27746;52.228;20.890;2022-08-19T12:14:03;33.40;78.20
42085;DHT22;27746;52.228;20.890;2022-08-19T12:16:32;33.40;77.90
42085;DHT22;27746;52.228;20.890;2022-08-19T12:19:01;33.50;78.10
42085;DHT22;27746;52.228;20.890;2022-08-19T12:21:32;33.50;77.80
42085;DHT22;27746;52.228;20.890;2022-08-19T12:24:00;33.30;79.00
42085;DHT22;27746;52.228;20.890;2022-08-19T12:26:29;33.30;77.80
42085;DHT22;27746;52.228;20.890;2022-08-19T12:28:58;33.30;78.50
42085;DHT22;27746;52.228;20.890;2022-08-19T12:31:25;33.10;78.70
42085;DHT22;27746;52.228;20.890;2022-08-19T12:33:55;33.20;77.50
42085;DHT22;27746;52.228;20.890;2022-08-19T12:36:22;33.20;76.30
42085;DHT22;27746;52.228;20.890;2022-08-19T12:38:51;33.20;76.70
42085;DHT22;27746;52.228;20.890;2022-08-19T12:41:18;33.30;76.00
42085;DHT22;27746;52.228;20.890;2022-08-19T12:43:47;33.20;75.70
42085;DHT22;27746;52.228;20.890;2022-08-19T12:46:15;33.20;76.30
42085;DHT22;27746;52.228;20.890;2022-08-19T12:48:41;33.30;75.80
42085;DHT22;27746;52.228;20.890;2022-08-19T12:51:13;33.30;76.20
42085;DHT22;27746;52.228;20.890;2022-08-19T12:53:40;33.20;75.10
42085;DHT22;27746;52.228;20.890;2022-08-19T12:56:08;33.30;74.70
42085;DHT22;27746;52.228;20.890;2022-08-19T12:58:36;33.40;75.40
42085;DHT22;27746;52.228;20.890;2022-08-19T13:01:08;33.60;76.70
42085;DHT22;27746;52.228;20.890;2022-08-19T13:03:35;33.50;75.80
42085;DHT22;27746;52.228;20.890;2022-08-19T13:06:02;33.50;75.90
42085;DHT22;27746;52.228;20.890;2022-08-19T13:08:30;33.50;76.20
42085;DHT22;27746;52.228;20.890;2022-08-19T13:10:57;33.50;75.70
42085;DHT22;27746;52.228;20.890;2022-08-19T13:13:25;33.40;75.40
42085;DHT22;27746;52.228;20.890;2022-08-19T13:15:52;33.20;76.20
42085;DHT22;27746;52.228;20.890;2022-08-19T13:18:19;33.30;75.30
42085;DHT22;27746;52.228;20.890;2022-08-19T13:20:45;33.20;76.00
42085;DHT22;27746;52.228;20.890;2022-08-19T13:23:12;33.20;75.70
42085;DHT22;27746;52.228;20.890;2022-08-19T13:25:40;33.30;75.30
42085;DHT22;27746;52.228;20.890;2022-08-19T13:28:07;33.20;75.20
42085;DHT22;27746;52.228;20.890;2022-08-19T13:30:34;33.10;75.70
42085;DHT22;27746;52.228;20.890;2022-08-19T13:33:19;33.20;76.20
42085;DHT22;27746;52.228;20.890;2022-08-19T13:35:48;33.20;76.20
42085;DHT22;27746;52.228;20.890;2022-08-19T13:38:17;33.20;75.40
42085;DHT22;27746;52.228;20.890;2022-08-19T13:40:46;33.20;75.80
42085;DHT22;27746;52.228;20.890;2022-08-19T13:43:15;33.00;75.50
42085;DHT22;27746;52.228;20.890;2022-08-19T13:45:42;33.00;75.80
42085;DHT22;27746;52.228;20.890;2022-08-19T13:48:09;33.20;75.00
42085;DHT22;27746;52.228;20.890;2022-08-19T13:50:39;33.20;75.60
42085;DHT22;27746;52.228;20.890;2022-08-19T13:53:07;33.10;75.10
42085;DHT22;27746;52.228;20.890;2022-08-19T13:55:35;33.20;75.00
42085;DHT22;27746;52.228;20.890;2022-08-19T13:58:04;33.00;74.40
42085;DHT22;27746;52.228;20.890;2022-08-19T14:00:33;32.90;74.70
42085;DHT22;27746;52.228;20.890;2022-08-19T14:03:00;32.90;74.40
42085;DHT22;27746;52.228;20.890;2022-08-19T14:05:28;32.80;74.90
42085;DHT22;27746;52.228;20.890;2022-08-19T14:07:56;32.70;74.50
42085;DHT22;27746;52.228;20.890;2022-08-19T14:10:24;32.70;75.00
42085;DHT22;27746;52.228;20.890;2022-08-19T14:12:53;32.60;74.30
42085;DHT22;27746;52.228;20.890;2022-08-19T14:15:22;32.60;74.70
42085;DHT22;27746;52.228;20.890;2022-08-19T14:17:49;32.70;74.70
42085;DHT22;27746;52.228;20.890;2022-08-19T14:20:17;32.60;74.70
42085;DHT22;27746;52.228;20.890;2022-08-19T14:22:45;32.70;74.40
42085;DHT22;27746;52.228;20.890;2022-08-19T14:25:14;32.80;74.50
42085;DHT22;27746;52.228;20.890;2022-08-19T14:27:42;32.80;73.80
42085;DHT22;27746;52.228;20.890;2022-08-19T14:30:11;32.70;73.80
42085;DHT22;27746;52.228;20.890;2022-08-19T14:32:41;32.60;73.70
42085;DHT22;27746;52.228;20.890;2022-08-19T14:35:08;32.60;74.20
42085;DHT22;27746;52.228;20.890;2022-08-19T14:37:36;32.60;73.40
42085;DHT22;27746;52.228;20.890;2022-08-19T14:40:03;32.80;73.60
42085;DHT22;27746;52.228;20.890;2022-08-19T14:42:30;32.60;73.60
42085;DHT22;27746;52.228;20.890;2022-08-19T14:44:57;32.50;73.10
42085;DHT22;27746;52.228;20.890;2022-08-19T14:47:25;32.50;73.20
42085;DHT22;27746;52.228;20.890;2022-08-19T14:49:53;32.40;73.10
42085;DHT22;27746;52.228;20.890;2022-08-19T14:52:21;32.50;72.90
42085;DHT22;27746;52.228;20.890;2022-08-19T14:54:47;32.50;72.80
42085;DHT22;27746;52.228;20.890;2022-08-19T14:57:14;32.30;73.50
42085;DHT22;27746;52.228;20.890;2022-08-19T14:59:42;32.40;72.50
42085;DHT22;27746;52.228;20.890;2022-08-19T15:02:11;32.30;72.60
42085;DHT22;27746;52.228;20.890;2022-08-19T15:04:38;32.30;72.60
42085;DHT22;27746;52.228;20.890;2022-08-19T15:07:06;32.30;73.50
42085;DHT22;27746;52.228;20.890;2022-08-19T15:09:33;32.30;72.70
42085;DHT22;27746;52.228;20.890;2022-08-19T15:12:00;32.30;72.90
42085;DHT22;27746;52.228;20.890;2022-08-19T15:14:28;32.20;71.80
42085;DHT22;27746;52.228;20.890;2022-08-19T15:17:00;32.20;71.90
42085;DHT22;27746;52.228;20.890;2022-08-19T15:19:27;32.20;72.30
42085;DHT22;27746;52.228;20.890;2022-08-19T15:21:54;32.20;72.30
42085;DHT22;27746;52.228;20.890;2022-08-19T15:24:22;32.10;72.40